Time;durP1;ratioP1;P1;durP2;ratioP2;P2;SDS_P1;SDS_P2;PMS_P1;PMS_P2;Temp;Humidity;BMP_temperature;BMP_pressure;BME280_temperature;BME280_humidity;BME280_pressure;Samples;Min_cycle;Max_cycle;Signal;HPM_P1;HPM_P2
2022/01/18 00:01:35;;;;;;;12.63;3.47;;;10.50;71.80;;;;;;6132618;23;20021;-75
2022/01/18 00:04:01;;;;;;;10.20;3.28;;;10.50;71.80;;;;;;6157778;23;20028;-76
2022/01/18 00:06:27;;;;;;;9.43;2.97;;;10.50;71.80;;;;;;6133851;23;20036;-77
2022/01/18 00:08:53;;;;;;;10.25;2.75;;;10.50;71.70;;;;;;6132847;23;20092;-75
2022/01/18 00:11:22;;;;;;;11.95;3.00;;;10.50;71.80;;;;;;6158498;23;20068;-76
2022/01/18 00:13:56;;;;;;;9.93;2.70;;;10.50;71.80;;;;;;6159008;23;20025;-75
2022/01/18 00:18:52;;;;;;;11.48;2.88;;;10.50;71.70;;;;;;6157520;23;20033;-77
2022/01/18 00:23:56;;;;;;;12.68;3.45;;;10.50;71.60;;;;;;6156716;23;20021;-75
2022/01/18 00:26:21;;;;;;;9.38;2.53;;;10.60;71.60;;;;;;6159064;23;20084;-76
2022/01/18 00:28:53;;;;;;;10.50;2.72;;;10.50;71.60;;;;;;6158229;23;20021;-75
2022/01/18 00:36:37;;;;;;;11.40;2.75;;;10.50;71.60;;;;;;6158920;23;20061;-76
2022/01/18 00:39:04;;;;;;;7.45;2.60;;;10.60;71.60;;;;;;6157437;23;20024;-77
2022/01/18 00:41:30;;;;;;;8.75;2.67;;;10.50;71.50;;;;;;6132686;23;20021;-75
2022/01/18 00:43:56;;;;;;;8.43;2.60;;;10.60;71.60;;;;;;6132866;23;20018;-75
2022/01/18 00:46:23;;;;;;;10.40;3.08;;;10.60;71.50;;;;;;6158235;23;20109;-77
2022/01/18 00:48:52;;;;;;;13.18;3.88;;;10.50;71.50;;;;;;6157637;23;20467;-77
2022/01/18 00:51:18;;;;;;;10.45;2.40;;;10.50;71.50;;;;;;6157330;23;20025;-75
2022/01/18 00:53:46;;;;;;;9.90;2.90;;;10.50;71.50;;;;;;6156671;23;20017;-77
2022/01/18 00:58:39;;;;;;;10.60;3.20;;;10.50;71.50;;;;;;6156547;23;20029;-75
2022/01/18 01:01:05;;;;;;;11.57;2.40;;;10.50;71.50;;;;;;6157055;23;20072;-76
2022/01/18 01:03:31;;;;;;;8.82;2.53;;;10.60;71.60;;;;;;6157891;23;20028;-76
2022/01/18 01:05:57;;;;;;;10.88;3.03;;;10.60;71.50;;;;;;6156598;23;20018;-76
2022/01/18 01:08:23;;;;;;;9.73;2.85;;;10.50;71.50;;;;;;6157508;23;20022;-75
2022/01/18 01:10:49;;;;;;;10.30;2.20;;;10.50;71.50;;;;;;6132362;23;20454;-75
2022/01/18 01:13:15;;;;;;;10.57;2.45;;;10.60;71.50;;;;;;6158071;23;20071;-77
2022/01/18 01:16:08;;;;;;;11.63;2.90;;;10.60;71.40;;;;;;6157010;23;20028;-77
2022/01/18 01:44:52;;;;;;;8.65;2.20;;;10.50;71.50;;;;;;6160073;23;20371;-75
2022/01/18 01:47:21;;;;;;;8.93;2.42;;;10.50;71.50;;;;;;6159879;23;20021;-75
2022/01/18 01:49:50;;;;;;;9.30;2.35;;;10.50;71.50;;;;;;6158669;23;20021;-75
2022/01/18 01:52:18;;;;;;;8.15;1.90;;;10.50;71.50;;;;;;6160255;23;20010;-75
2022/01/18 01:54:44;;;;;;;10.43;2.72;;;10.50;71.50;;;;;;6159423;23;20023;-75
2022/01/18 01:57:10;;;;;;;7.75;2.35;;;10.50;71.40;;;;;;6159304;23;20025;-75
2022/01/18 01:59:36;;;;;;;8.55;2.22;;;10.50;71.40;;;;;;6159622;23;20018;-76
2022/01/18 02:02:03;;;;;;;6.43;2.67;;;10.50;71.50;;;;;;6134668;23;20371;-75
2022/01/18 02:04:29;;;;;;;10.20;2.28;;;10.50;71.50;;;;;;6158842;23;20104;-76
2022/01/18 02:06:55;;;;;;;6.45;2.15;;;10.50;71.50;;;;;;6159125;23;20100;-74
2022/01/18 02:09:20;;;;;;;10.73;2.08;;;10.50;71.50;;;;;;6160405;23;20423;-76
2022/01/18 02:11:46;;;;;;;9.40;2.30;;;10.50;71.50;;;;;;6158256;23;20018;-75
2022/01/18 02:14:19;;;;;;;8.60;2.40;;;10.50;71.50;;;;;;6158685;23;20064;-76
2022/01/18 02:22:14;;;;;;;8.35;1.95;;;10.50;71.50;;;;;;6160237;23;20025;-76
2022/01/18 02:24:41;;;;;;;6.78;1.85;;;10.50;71.50;;;;;;6133850;23;20036;-77
2022/01/18 02:27:06;;;;;;;9.63;2.38;;;10.50;71.50;;;;;;6159485;23;20025;-74
2022/01/18 02:29:32;;;;;;;7.63;1.90;;;10.50;71.50;;;;;;6157991;23;20141;-74
2022/01/18 02:31:58;;;;;;;9.98;2.15;;;10.50;71.50;;;;;;6134079;23;20100;-76
2022/01/18 02:34:25;;;;;;;11.32;2.15;;;10.50;71.50;;;;;;6159364;23;20057;-75
2022/01/18 02:36:57;;;;;;;9.48;2.20;;;10.50;71.50;;;;;;6160071;23;20026;-75
2022/01/18 02:39:25;;;;;;;8.40;2.15;;;10.50;71.50;;;;;;6159078;23;20013;-77
2022/01/18 02:42:06;;;;;;;6.35;2.00;;;10.50;71.40;;;;;;6158533;23;20017;-75
2022/01/18 02:44:33;;;;;;;7.10;2.08;;;10.50;71.50;;;;;;6159552;23;20018;-75
2022/01/18 02:47:00;;;;;;;7.47;2.10;;;10.50;71.50;;;;;;6159211;23;20084;-75
2022/01/18 02:49:27;;;;;;;8.02;2.05;;;10.50;71.50;;;;;;6133849;23;20293;-74
2022/01/18 02:51:55;;;;;;;6.45;1.90;;;10.50;71.40;;;;;;6133639;23;20427;-75
2022/01/18 02:54:20;;;;;;;10.70;2.00;;;10.50;71.40;;;;;;6159782;23;20018;-76
2022/01/18 02:56:52;;;;;;;8.43;1.92;;;10.50;71.50;;;;;;6158385;23;20032;-78
2022/01/18 02:59:45;;;;;;;5.10;1.35;;;10.50;71.50;;;;;;6159410;23;20367;-77
2022/01/18 03:05:06;;;;;;;7.63;1.88;;;10.50;72.00;;;;;;6158193;23;20018;-76
2022/01/18 03:07:32;;;;;;;8.35;1.90;;;10.50;71.40;;;;;;6133649;23;20028;-76
2022/01/18 03:09:57;;;;;;;6.95;1.60;;;10.40;71.40;;;;;;6159148;23;20025;-75
2022/01/18 03:12:23;;;;;;;5.80;1.75;;;10.40;71.40;;;;;;6133083;23;20021;-76
2022/01/18 03:14:49;;;;;;;7.32;1.98;;;10.40;71.40;;;;;;6133434;23;20032;-76
2022/01/18 03:17:15;;;;;;;9.60;2.10;;;10.40;71.40;;;;;;6133877;23;20022;-76
2022/01/18 03:19:41;;;;;;;5.25;1.52;;;10.40;71.50;;;;;;6158159;23;20029;-76
2022/01/18 03:22:07;;;;;;;8.55;1.67;;;10.40;71.50;;;;;;6133483;23;20022;-75
2022/01/18 03:30:13;;;;;;;6.80;1.75;;;10.40;71.40;;;;;;6158827;23;20029;-75
2022/01/18 03:32:39;;;;;;;5.38;1.50;;;10.40;71.40;;;;;;6158943;23;20029;-76
2022/01/18 03:35:07;;;;;;;7.97;1.77;;;10.40;71.40;;;;;;6158058;23;20017;-77
2022/01/18 03:37:33;;;;;;;6.18;1.73;;;10.40;71.50;;;;;;6157968;23;20021;-77
2022/01/18 03:39:59;;;;;;;7.25;1.95;;;10.40;71.40;;;;;;6157954;23;20059;-74
2022/01/18 03:44:50;;;;;;;9.05;2.00;;;10.40;71.50;;;;;;6159469;23;20037;-74
2022/01/18 03:47:17;;;;;;;6.78;1.85;;;10.40;71.50;;;;;;6157729;23;20301;-76
2022/01/18 03:49:43;;;;;;;5.70;1.30;;;10.40;71.50;;;;;;6158224;23;20049;-75
2022/01/18 03:52:09;;;;;;;6.22;1.95;;;10.40;71.50;;;;;;6157022;23;20026;-75
2022/01/18 03:54:42;;;;;;;7.85;1.60;;;10.40;71.50;;;;;;6157797;23;20020;-76
2022/01/18 03:57:08;;;;;;;7.90;1.60;;;10.40;71.50;;;;;;6158485;23;20014;-74
2022/01/18 03:59:34;;;;;;;4.53;1.10;;;10.40;71.60;;;;;;6158282;23;20029;-75
2022/01/18 04:01:59;;;;;;;7.03;1.30;;;10.40;71.40;;;;;;6157502;23;20115;-76
2022/01/18 04:04:25;;;;;;;5.53;1.48;;;10.40;71.40;;;;;;6158432;23;20092;-75
2022/01/18 04:06:51;;;;;;;7.68;1.83;;;10.40;71.40;;;;;;6157563;23;20021;-75
2022/01/18 04:09:19;;;;;;;6.85;1.30;;;10.40;71.40;;;;;;6158507;23;20319;-76
2022/01/18 04:11:44;;;;;;;5.25;1.42;;;10.50;71.40;;;;;;6157524;23;20022;-76
2022/01/18 04:14:10;;;;;;;4.15;1.38;;;10.50;71.30;;;;;;6157749;23;20057;-74
2022/01/18 04:17:04;;;;;;;4.35;1.52;;;10.50;71.30;;;;;;6157064;23;20018;-77
2022/01/18 04:27:40;;;;;;;6.35;1.52;;;10.50;71.30;;;;;;6156773;23;20083;-76
2022/01/18 04:30:06;;;;;;;4.78;1.65;;;10.40;71.30;;;;;;6158477;23;20025;-76
2022/01/18 04:32:32;;;;;;;5.72;1.48;;;10.40;71.30;;;;;;6157739;23;20159;-76
2022/01/18 04:34:58;;;;;;;4.50;1.75;;;10.40;71.30;;;;;;6157374;23;20053;-76
2022/01/18 04:37:23;;;;;;;3.35;1.27;;;10.40;71.30;;;;;;6156705;23;20018;-77
2022/01/18 04:39:49;;;;;;;3.42;1.15;;;10.50;71.40;;;;;;6158232;23;20028;-75
2022/01/18 04:42:35;;;;;;;5.70;0.80;;;10.50;71.40;;;;;;6157310;23;20021;-77
2022/01/18 04:50:29;;;;;;;;;;;10.50;71.40;;;;;;6158221;23;20356;-77
2022/01/18 04:52:55;;;;;;;9.70;2.00;;;10.50;71.20;;;;;;6158408;23;20004;-76
2022/01/18 04:55:20;;;;;;;4.93;1.20;;;10.50;71.40;;;;;;6158390;23;20018;-75
2022/01/18 04:57:52;;;;;;;5.75;1.00;;;10.40;71.30;;;;;;6157084;23;20430;-77
2022/01/18 05:00:19;;;;;;;3.38;0.88;;;10.50;71.40;;;;;;6132542;23;20477;-75
2022/01/18 05:02:47;;;;;;;6.78;1.48;;;10.50;71.40;;;;;;6157042;23;20431;-77
2022/01/18 05:05:22;;;;;;;4.75;1.13;;;10.50;71.40;;;;;;6156780;23;20018;-78
2022/01/18 05:07:48;;;;;;;7.70;1.25;;;10.40;71.30;;;;;;6157760;23;20300;-77
2022/01/18 05:10:16;;;;;;;3.42;0.90;;;10.40;71.30;;;;;;6157676;23;20028;-76
2022/01/18 05:12:53;;;;;;;3.63;1.00;;;10.50;71.30;;;;;;6157899;23;20399;-77
2022/01/18 05:15:39;;;;;;;4.78;1.10;;;10.50;71.40;;;;;;6158078;23;20043;-78
2022/01/18 05:21:16;;;;;;;5.45;0.98;;;10.40;71.40;;;;;;6156395;23;20021;-76
2022/01/18 05:23:41;;;;;;;5.00;1.33;;;10.40;71.40;;;;;;6156841;23;20024;-75
2022/01/18 05:26:07;;;;;;;6.20;1.27;;;10.40;71.40;;;;;;6158712;23;20029;-75
2022/01/18 05:28:33;;;;;;;4.70;0.95;;;10.40;71.40;;;;;;6157124;23;20070;-78
2022/01/18 05:30:58;;;;;;;5.30;1.45;;;10.40;71.40;;;;;;6158169;23;20026;-77
2022/01/18 05:33:25;;;;;;;4.43;1.25;;;10.40;71.40;;;;;;6156450;23;20013;-75
2022/01/18 05:35:52;;;;;;;3.00;0.90;;;10.40;71.40;;;;;;6156448;23;20025;-76
2022/01/18 05:38:17;;;;;;;4.82;1.45;;;10.40;71.40;;;;;;6156461;23;20068;-76
2022/01/18 05:40:43;;;;;;;4.68;0.98;;;10.40;71.40;;;;;;6132155;23;20013;-75
2022/01/18 05:43:09;;;;;;;4.35;1.50;;;10.40;71.40;;;;;;6156833;23;20021;-76
2022/01/18 05:45:34;;;;;;;5.80;1.45;;;10.40;71.50;;;;;;6158949;23;20021;-76
2022/01/18 05:48:00;;;;;;;4.95;1.33;;;10.40;71.50;;;;;;6157325;23;20017;-75
2022/01/18 05:50:26;;;;;;;4.85;1.25;;;10.40;71.40;;;;;;6156305;23;20024;-75
2022/01/18 05:52:51;;;;;;;5.07;1.13;;;10.40;71.40;;;;;;6157502;23;20482;-75
2022/01/18 05:55:27;;;;;;;5.85;1.13;;;10.40;71.40;;;;;;6157902;23;20029;-75
2022/01/18 05:57:53;;;;;;;3.97;0.85;;;10.40;71.40;;;;;;6157260;23;20017;-75
2022/01/18 06:00:22;;;;;;;5.63;1.48;;;10.40;71.40;;;;;;6156302;23;20036;-78
2022/01/18 06:08:10;;;;;;;4.05;1.00;;;10.40;71.30;;;;;;6156291;23;20081;-76
2022/01/18 06:10:36;;;;;;;4.80;1.05;;;10.40;71.90;;;;;;6157023;23;20311;-76
2022/01/18 06:13:03;;;;;;;4.25;1.45;;;10.40;71.40;;;;;;6157174;23;20033;-76
2022/01/18 06:15:31;;;;;;;3.45;0.82;;;10.40;71.40;;;;;;6156320;23;20022;-74
2022/01/18 06:17:57;;;;;;;4.55;1.08;;;10.50;71.40;;;;;;6157629;23;20027;-77
2022/01/18 06:20:24;;;;;;;6.40;1.52;;;10.40;71.40;;;;;;6157065;23;20088;-77
2022/01/18 06:22:51;;;;;;;5.65;0.90;;;10.50;71.40;;;;;;6158556;23;20018;-75
2022/01/18 06:25:18;;;;;;;6.53;1.45;;;10.40;71.40;;;;;;6158131;23;20014;-77
2022/01/18 06:27:45;;;;;;;5.28;1.30;;;10.40;71.40;;;;;;6158399;23;20091;-77
2022/01/18 06:30:20;;;;;;;5.88;1.40;;;10.40;71.40;;;;;;6158202;23;20156;-78
2022/01/18 06:32:46;;;;;;;7.32;2.00;;;10.40;71.40;;;;;;6158461;23;20428;-77
2022/01/18 06:35:13;;;;;;;3.80;1.38;;;10.40;71.40;;;;;;6159283;23;20021;-75
2022/01/18 06:37:40;;;;;;;5.07;1.98;;;10.40;71.40;;;;;;6157870;23;20025;-76
2022/01/18 06:40:09;;;;;;;7.70;1.48;;;10.40;71.40;;;;;;6158539;23;20029;-77
2022/01/18 06:42:34;;;;;;;5.07;1.10;;;10.40;71.50;;;;;;6158457;23;20366;-78
2022/01/18 06:45:00;;;;;;;3.63;1.08;;;10.40;71.50;;;;;;6159170;23;20096;-75
2022/01/18 06:47:26;;;;;;;4.00;1.00;;;10.40;71.50;;;;;;6157926;23;20018;-75
2022/01/18 06:49:53;;;;;;;5.45;1.33;;;10.40;71.50;;;;;;6160491;23;20115;-77
2022/01/18 06:52:18;;;;;;;4.70;1.05;;;10.40;71.50;;;;;;6159918;23;20033;-75
2022/01/18 06:54:44;;;;;;;8.07;1.60;;;10.40;71.50;;;;;;6158087;23;20017;-75
2022/01/18 06:57:10;;;;;;;4.82;1.23;;;10.40;71.50;;;;;;6158033;23;20018;-77
2022/01/18 06:59:36;;;;;;;4.18;1.17;;;10.40;71.50;;;;;;6158543;23;20049;-76
2022/01/18 07:02:02;;;;;;;5.85;1.83;;;10.40;71.50;;;;;;6159148;23;20017;-75
2022/01/18 07:04:28;;;;;;;4.47;1.25;;;10.40;71.60;;;;;;6159176;23;20018;-76
2022/01/18 07:06:54;;;;;;;5.28;1.83;;;10.40;71.60;;;;;;6159640;23;20304;-77
2022/01/18 07:09:23;;;;;;;8.27;1.80;;;10.40;71.60;;;;;;6133099;23;20017;-76
2022/01/18 07:11:56;;;;;;;4.60;1.30;;;10.40;71.60;;;;;;6157968;23;20021;-76
2022/01/18 07:14:22;;;;;;;6.07;1.50;;;10.40;71.60;;;;;;6133472;23;20028;-77
2022/01/18 07:16:49;;;;;;;7.57;1.45;;;10.30;71.50;;;;;;6158877;23;20053;-75
2022/01/18 07:19:15;;;;;;;5.10;1.83;;;10.40;71.60;;;;;;6158759;23;20021;-76
2022/01/18 07:21:41;;;;;;;4.78;1.35;;;10.40;71.60;;;;;;6158259;23;20017;-78
2022/01/18 07:24:17;;;;;;;6.65;1.20;;;10.40;71.60;;;;;;6158836;23;20029;-77
2022/01/18 07:26:43;;;;;;;4.68;1.85;;;10.40;71.60;;;;;;6159119;23;20304;-76
2022/01/18 07:29:09;;;;;;;3.95;0.73;;;10.40;71.60;;;;;;6157976;23;20443;-77
2022/01/18 07:31:35;;;;;;;6.07;1.50;;;10.40;71.60;;;;;;6157439;23;20029;-77
2022/01/18 07:34:01;;;;;;;6.30;1.23;;;10.40;71.60;;;;;;6158986;23;20017;-76
2022/01/18 07:36:27;;;;;;;4.18;1.00;;;10.40;71.50;;;;;;6158010;23;20308;-77
2022/01/18 07:38:55;;;;;;;2.78;1.10;;;10.40;71.60;;;;;;6157764;23;20021;-75
2022/01/18 07:41:20;;;;;;;3.08;0.80;;;10.40;71.50;;;;;;6158081;23;20028;-77
2022/01/18 07:43:46;;;;;;;4.15;1.17;;;10.40;71.60;;;;;;6157200;23;20373;-77
2022/01/18 07:46:12;;;;;;;3.20;1.05;;;10.40;71.60;;;;;;6133466;23;20026;-78
2022/01/18 07:48:37;;;;;;;2.92;1.05;;;10.40;71.60;;;;;;6158719;23;20017;-77
2022/01/18 07:51:03;;;;;;;2.63;0.70;;;10.40;71.60;;;;;;6159161;23;20470;-78
2022/01/18 07:53:29;;;;;;;3.72;0.95;;;10.40;71.50;;;;;;6159467;23;20087;-75
2022/01/18 07:55:54;;;;;;;3.80;1.23;;;10.40;71.50;;;;;;6157592;23;20025;-77
2022/01/18 07:58:20;;;;;;;4.68;1.00;;;10.40;71.70;;;;;;6159263;23;20024;-76
2022/01/18 08:00:47;;;;;;;3.47;0.70;;;10.40;71.50;;;;;;6159406;23;20033;-78
2022/01/18 08:03:13;;;;;;;2.33;0.63;;;10.40;71.40;;;;;;6133735;23;20029;-76
2022/01/18 08:05:39;;;;;;;2.47;0.93;;;10.40;71.50;;;;;;6133222;23;20311;-77
2022/01/18 08:08:05;;;;;;;4.07;1.05;;;10.40;71.40;;;;;;6157099;23;20036;-77
2022/01/18 08:10:32;;;;;;;2.55;0.80;;;10.40;71.40;;;;;;6158698;23;20025;-78
2022/01/18 08:13:01;;;;;;;2.70;0.73;;;10.40;71.50;;;;;;6157075;23;20025;-76
2022/01/18 08:15:39;;;;;;;3.00;1.10;;;10.40;71.50;;;;;;6159563;23;20021;-76
2022/01/18 08:18:14;;;;;;;2.28;0.90;;;10.40;71.40;;;;;;6158184;23;20101;-76
2022/01/18 08:20:41;;;;;;;3.95;0.93;;;10.40;71.40;;;;;;6158570;23;20022;-76
2022/01/18 08:23:07;;;;;;;3.80;0.75;;;10.40;71.40;;;;;;6157614;23;20029;-78
2022/01/18 08:25:34;;;;;;;1.88;0.82;;;10.40;71.40;;;;;;6132394;23;20049;-78
2022/01/18 08:28:02;;;;;;;2.85;1.15;;;10.40;71.40;;;;;;6157706;23;20023;-77
2022/01/18 08:30:28;;;;;;;2.72;1.00;;;10.40;71.40;;;;;;6157054;23;20022;-76
2022/01/18 08:32:55;;;;;;;3.08;0.80;;;10.40;71.30;;;;;;6158738;23;20024;-76
2022/01/18 08:35:23;;;;;;;3.00;0.70;;;10.40;71.30;;;;;;6158679;23;20021;-78
2022/01/18 08:37:49;;;;;;;1.90;1.05;;;10.50;71.40;;;;;;6132328;23;20061;-77
2022/01/18 08:40:15;;;;;;;3.00;1.10;;;10.40;71.30;;;;;;6157141;23;20017;-78
2022/01/18 08:42:41;;;;;;;2.00;1.00;;;10.50;71.30;;;;;;6132256;23;20023;-77
2022/01/18 08:45:10;;;;;;;3.00;0.95;;;10.50;71.30;;;;;;6158998;23;20024;-78
2022/01/18 08:47:36;;;;;;;3.08;1.10;;;10.50;71.30;;;;;;6132616;23;20072;-78
2022/01/18 08:50:03;;;;;;;2.83;0.82;;;10.50;71.30;;;;;;6156718;23;20088;-77
2022/01/18 08:52:28;;;;;;;3.72;0.80;;;10.50;71.20;;;;;;6159549;23;20033;-78
2022/01/18 08:54:54;;;;;;;2.10;0.80;;;10.40;71.20;;;;;;6157677;23;20359;-77
2022/01/18 08:57:20;;;;;;;2.95;1.05;;;10.50;71.30;;;;;;6157970;23;20388;-76
2022/01/18 08:59:50;;;;;;;1.23;0.60;;;10.40;71.30;;;;;;6158126;23;20096;-76
2022/01/18 09:02:16;;;;;;;2.17;0.65;;;10.50;71.30;;;;;;6158192;23;20060;-76
2022/01/18 09:04:41;;;;;;;2.10;0.70;;;10.40;71.30;;;;;;6157363;23;20327;-78
2022/01/18 09:07:23;;;;;;;1.95;0.85;;;10.40;71.20;;;;;;6156583;23;20419;-76
2022/01/18 09:09:51;;;;;;;1.15;0.40;;;10.40;71.30;;;;;;6158187;23;20025;-77
2022/01/18 09:12:17;;;;;;;2.10;0.88;;;10.50;71.30;;;;;;6132073;23;20338;-76
2022/01/18 09:14:43;;;;;;;2.58;0.57;;;10.50;71.30;;;;;;6132908;23;20052;-78
2022/01/18 09:17:09;;;;;;;2.08;0.77;;;10.50;71.20;;;;;;6159067;23;22000;-76
2022/01/18 09:19:35;;;;;;;2.67;0.80;;;10.50;71.30;;;;;;6158126;23;20098;-76
2022/01/18 09:22:03;;;;;;;2.05;0.57;;;10.50;71.20;;;;;;6156881;23;20316;-76
2022/01/18 09:24:29;;;;;;;1.83;0.63;;;10.50;71.20;;;;;;6157094;23;20032;-76
2022/01/18 09:26:55;;;;;;;1.50;0.47;;;10.50;71.20;;;;;;6157106;23;20041;-76
2022/01/18 09:29:21;;;;;;;1.52;0.60;;;10.50;71.20;;;;;;6157848;23;20017;-78
2022/01/18 09:32:13;;;;;;;2.55;0.70;;;10.50;71.20;;;;;;6157129;23;20096;-76
2022/01/18 09:34:39;;;;;;;2.08;0.73;;;10.50;71.20;;;;;;6141058;23;20297;-75
2022/01/18 09:37:05;;;;;;;1.08;0.38;;;10.50;71.20;;;;;;6156912;23;20100;-77
2022/01/18 09:39:30;;;;;;;0.95;0.40;;;10.50;71.20;;;;;;6132762;23;20044;-76
2022/01/18 09:42:04;;;;;;;1.08;0.60;;;10.50;71.20;;;;;;6132681;23;20033;-76
2022/01/18 09:44:29;;;;;;;1.52;0.55;;;10.50;71.20;;;;;;6131832;23;20489;-76
2022/01/18 09:46:55;;;;;;;3.95;1.10;;;10.50;71.20;;;;;;6158096;23;20092;-78
2022/01/18 09:49:24;;;;;;;2.10;0.80;;;10.50;71.10;;;;;;6157545;23;20018;-78
2022/01/18 09:51:50;;;;;;;1.40;0.50;;;10.50;71.10;;;;;;6157680;23;20392;-75
2022/01/18 09:54:16;;;;;;;1.08;0.50;;;10.50;71.10;;;;;;6157273;23;20025;-77
2022/01/18 09:56:43;;;;;;;1.27;0.50;;;10.50;71.10;;;;;;6159655;23;20025;-78
2022/01/18 09:59:08;;;;;;;1.75;0.65;;;10.50;71.20;;;;;;6158306;23;20033;-77
2022/01/18 10:01:35;;;;;;;1.88;0.60;;;10.50;71.20;;;;;;6158532;23;20096;-78
2022/01/18 10:04:17;;;;;;;1.45;0.57;;;10.50;71.20;;;;;;6159410;23;20029;-77
2022/01/18 10:06:51;;;;;;;0.98;0.60;;;10.50;71.20;;;;;;6159376;23;20431;-76
2022/01/18 10:09:17;;;;;;;;;;;10.50;71.30;;;;;;6159343;23;20024;-76
2022/01/18 10:12:06;;;;;;;1.65;0.50;;;10.50;71.20;;;;;;6158607;23;19917;-76
2022/01/18 10:18:14;;;;;;;1.08;0.60;;;10.50;71.30;;;;;;6066874;23;20033;-78
2022/01/18 10:20:52;;;;;;;2.15;0.60;;;10.50;71.40;;;;;;6159247;23;20315;-76
2022/01/18 10:23:24;;;;;;;1.63;0.68;;;10.50;71.40;;;;;;6159761;23;20055;-77
2022/01/18 10:26:29;;;;;;;1.30;0.40;;;10.50;71.40;;;;;;6159312;23;20068;-78
2022/01/18 10:29:29;;;;;;;1.10;0.63;;;10.50;71.40;;;;;;6153212;23;20352;-76
2022/01/18 10:31:58;;;;;;;1.13;0.50;;;10.50;71.30;;;;;;6133464;23;20022;-78
2022/01/18 10:37:10;;;;;;;2.75;0.50;;;10.50;71.30;;;;;;6159250;23;20029;-78
2022/01/18 10:39:47;;;;;;;1.83;0.60;;;10.50;71.30;;;;;;6158558;23;20013;-77
2022/01/18 10:42:18;;;;;;;0.90;0.45;;;10.50;71.30;;;;;;6159204;23;20029;-76
2022/01/18 10:44:56;;;;;;;1.40;0.65;;;10.50;71.40;;;;;;6159026;23;20022;-76
2022/01/18 10:47:22;;;;;;;1.58;0.60;;;10.50;71.40;;;;;;6158168;23;20021;-78
2022/01/18 10:49:48;;;;;;;1.83;0.60;;;10.50;71.40;;;;;;6157835;23;20037;-75
2022/01/18 10:52:20;;;;;;;1.00;0.60;;;10.50;71.30;;;;;;6160184;23;20029;-76
2022/01/18 10:54:48;;;;;;;1.38;0.50;;;10.50;71.40;;;;;;6157788;23;20113;-76
2022/01/18 10:57:19;;;;;;;1.75;0.47;;;10.50;71.30;;;;;;6158239;23;20032;-75
2022/01/18 10:59:45;;;;;;;1.60;0.63;;;10.50;71.30;;;;;;6158228;23;20412;-76
2022/01/18 11:02:20;;;;;;;1.25;0.50;;;10.50;71.30;;;;;;6158726;23;20024;-78
2022/01/18 11:05:24;;;;;;;2.08;0.75;;;10.50;71.30;;;;;;6134052;23;20030;-78
2022/01/18 11:07:57;;;;;;;1.02;0.50;;;10.60;71.20;;;;;;6127160;23;20017;-76
2022/01/18 11:10:26;;;;;;;0.65;0.43;;;10.50;71.30;;;;;;6158680;23;20449;-76
2022/01/18 11:13:18;;;;;;;2.42;0.70;;;10.60;71.40;;;;;;6133885;23;20032;-79
2022/01/18 11:19:41;;;;;;;1.08;0.40;;;10.50;71.30;;;;;;5993620;23;20080;-75
2022/01/18 11:22:10;;;;;;;1.85;0.63;;;10.50;71.30;;;;;;6158290;23;20017;-75
2022/01/18 11:24:41;;;;;;;2.05;0.40;;;10.50;71.30;;;;;;6158732;23;20014;-79
2022/01/18 11:27:12;;;;;;;1.05;0.52;;;10.60;71.40;;;;;;6157780;23;20025;-76
2022/01/18 11:30:46;;;;;;;1.85;0.65;;;10.50;71.30;;;;;;6158190;23;20048;-75
2022/01/18 11:33:14;;;;;;;1.60;0.70;;;10.50;71.90;;;;;;6157423;23;20075;-76
2022/01/18 11:35:46;;;;;;;1.27;0.50;;;10.60;71.30;;;;;;6158763;23;20029;-76
2022/01/18 11:38:49;;;;;;;0.80;0.40;;;10.60;71.30;;;;;;6158667;23;20049;-76
2022/01/18 11:41:25;;;;;;;1.27;0.47;;;10.60;71.20;;;;;;6157414;23;20022;-76
2022/01/18 11:43:52;;;;;;;1.52;0.55;;;10.60;71.30;;;;;;6157405;23;20014;-75
2022/01/18 11:46:24;;;;;;;3.05;0.70;;;10.60;71.30;;;;;;6157929;23;20028;-75
2022/01/18 11:49:01;;;;;;;1.67;0.40;;;10.60;71.30;;;;;;6157075;23;20052;-77
2022/01/18 11:51:56;;;;;;;2.88;0.88;;;10.60;71.20;;;;;;6159049;23;20017;-76
2022/01/18 11:54:24;;;;;;;0.98;0.50;;;10.60;71.20;;;;;;6157941;23;20450;-76
2022/01/18 11:56:49;;;;;;;1.20;0.50;;;10.60;71.20;;;;;;6158428;23;20490;-76
2022/01/18 11:59:17;;;;;;;2.22;0.52;;;10.60;71.20;;;;;;6158557;23;20057;-76
2022/01/18 12:01:55;;;;;;;1.88;0.60;;;10.60;71.20;;;;;;6157802;23;20020;-74
2022/01/18 12:07:30;;;;;;;1.05;0.52;;;10.60;71.20;;;;;;6158796;23;20025;-77
2022/01/18 12:09:56;;;;;;;1.25;0.52;;;10.60;71.20;;;;;;6108250;23;20080;-77
2022/01/18 12:12:40;;;;;;;1.38;0.52;;;10.60;71.20;;;;;;6157405;23;20017;-77
2022/01/18 12:15:24;;;;;;;1.73;0.68;;;10.60;71.10;;;;;;6132732;23;20032;-77
2022/01/18 12:17:54;;;;;;;1.90;0.70;;;10.60;71.20;;;;;;6156999;23;20408;-75
2022/01/18 12:20:40;;;;;;;1.63;0.75;;;10.60;71.20;;;;;;6157729;23;20021;-76
2022/01/18 12:23:17;;;;;;;1.02;0.52;;;10.60;71.20;;;;;;6132276;23;20018;-76
2022/01/18 12:26:01;;;;;;;1.25;0.57;;;10.60;71.10;;;;;;6157558;23;20013;-77
2022/01/18 12:36:53;;;;;;;1.25;0.57;;;10.60;71.10;;;;;;6157142;23;20021;-75
2022/01/18 12:39:19;;;;;;;2.35;0.98;;;10.60;71.20;;;;;;6133475;23;20025;-77
2022/01/18 12:41:51;;;;;;;2.13;0.80;;;10.60;71.20;;;;;;6157878;23;20017;-75
2022/01/18 12:44:24;;;;;;;2.22;0.80;;;10.60;71.20;;;;;;6158269;23;20088;-76
2022/01/18 12:46:58;;;;;;;3.70;1.00;;;10.60;71.20;;;;;;6158107;23;20028;-76
2022/01/18 12:49:25;;;;;;;2.78;1.05;;;10.60;71.20;;;;;;6158519;23;20018;-75
2022/01/18 12:51:56;;;;;;;1.73;0.80;;;10.60;71.20;;;;;;6132128;23;20056;-77
2022/01/18 12:54:35;;;;;;;1.75;0.80;;;10.60;71.20;;;;;;6132592;23;20028;-76
2022/01/18 12:57:11;;;;;;;1.63;0.80;;;10.60;71.20;;;;;;6157906;23;20017;-77
2022/01/18 12:59:56;;;;;;;2.03;1.00;;;10.60;71.20;;;;;;6132389;23;20426;-76
2022/01/18 13:02:22;;;;;;;1.65;0.77;;;10.60;71.10;;;;;;6156683;23;20018;-77
2022/01/18 13:04:59;;;;;;;1.98;0.68;;;10.60;71.20;;;;;;6158700;23;20029;-76
2022/01/18 13:07:25;;;;;;;1.50;0.70;;;10.60;71.10;;;;;;6132827;23;20072;-75
2022/01/18 13:10:03;;;;;;;2.63;1.17;;;10.60;71.10;;;;;;6156704;23;20017;-76
2022/01/18 13:12:34;;;;;;;2.47;1.10;;;10.60;71.10;;;;;;6156681;23;20049;-76
2022/01/18 13:15:03;;;;;;;2.72;1.42;;;10.60;71.10;;;;;;6156877;23;20017;-77
2022/01/18 13:23:14;;;;;;;1.92;0.90;;;10.60;71.00;;;;;;6156347;23;20025;-75
2022/01/18 13:25:54;;;;;;;2.67;1.08;;;10.60;71.00;;;;;;6156427;23;20093;-76
2022/01/18 13:28:34;;;;;;;2.42;1.58;;;10.70;71.00;;;;;;6157691;23;20022;-76
2022/01/18 13:31:17;;;;;;;2.40;1.13;;;10.60;70.90;;;;;;6156368;23;20017;-76
2022/01/18 13:33:58;;;;;;;3.33;1.40;;;10.60;70.90;;;;;;6157835;23;20021;-77
2022/01/18 13:36:27;;;;;;;3.72;1.42;;;10.60;70.90;;;;;;6157668;23;20311;-77
2022/01/18 13:38:53;;;;;;;3.55;1.60;;;10.60;70.90;;;;;;6156367;23;20036;-75
2022/01/18 13:41:19;;;;;;;5.28;1.83;;;10.60;70.90;;;;;;6157905;23;20026;-78
2022/01/18 13:43:47;;;;;;;3.88;1.42;;;10.60;70.90;;;;;;6157334;23;20029;-78
2022/01/18 13:46:23;;;;;;;2.60;1.52;;;10.60;70.90;;;;;;6158020;23;20392;-76
2022/01/18 13:48:48;;;;;;;4.30;1.40;;;10.60;71.00;;;;;;6157563;23;20101;-77
2022/01/18 13:51:15;;;;;;;3.85;1.70;;;10.60;70.90;;;;;;6158338;23;20029;-75
2022/01/18 13:53:41;;;;;;;2.58;1.38;;;10.70;71.00;;;;;;6156926;23;20017;-77
2022/01/18 13:56:12;;;;;;;4.57;2.05;;;10.60;70.90;;;;;;6133169;23;20052;-77
2022/01/18 13:58:42;;;;;;;4.00;2.00;;;10.60;70.90;;;;;;6132057;23;20021;-76
2022/01/18 14:01:17;;;;;;;3.45;2.00;;;10.60;70.80;;;;;;6157815;23;20036;-76
2022/01/18 14:04:00;;;;;;;3.17;1.90;;;10.60;70.90;;;;;;6158061;23;20100;-78
2022/01/18 14:06:43;;;;;;;4.32;2.08;;;10.60;70.80;;;;;;6132455;23;20013;-76
2022/01/18 14:09:11;;;;;;;4.03;2.20;;;10.60;70.70;;;;;;6156329;23;20032;-76
2022/01/18 14:11:38;;;;;;;3.55;2.15;;;10.60;70.80;;;;;;6158084;23;20264;-75
2022/01/18 14:14:21;;;;;;;3.53;1.70;;;10.60;70.80;;;;;;6158091;23;20042;-76
2022/01/18 14:16:48;;;;;;;5.07;2.00;;;10.60;70.70;;;;;;6132444;23;20044;-78
2022/01/18 14:19:27;;;;;;;5.57;2.35;;;10.60;70.80;;;;;;6132043;23;20315;-76
2022/01/18 14:21:54;;;;;;;4.68;2.28;;;10.60;70.80;;;;;;6156215;23;20016;-78
2022/01/18 14:24:25;;;;;;;3.05;2.08;;;10.60;70.70;;;;;;6132236;23;20320;-78
2022/01/18 14:26:51;;;;;;;3.92;2.15;;;10.60;70.80;;;;;;6156535;23;20053;-76
2022/01/18 14:29:22;;;;;;;4.47;2.38;;;10.60;70.80;;;;;;6156962;23;20017;-78
2022/01/18 14:32:02;;;;;;;5.60;2.60;;;10.60;70.70;;;;;;6132156;23;20020;-77
2022/01/18 14:34:33;;;;;;;2.92;1.92;;;10.60;70.50;;;;;;6156166;23;20018;-76
2022/01/18 14:36:59;;;;;;;3.10;2.00;;;10.60;70.70;;;;;;6131835;23;20017;-76
2022/01/18 14:39:25;;;;;;;4.88;2.40;;;10.60;70.70;;;;;;6156683;23;20104;-77
2022/01/18 14:42:03;;;;;;;3.83;2.13;;;10.60;70.70;;;;;;6156964;23;20419;-75
2022/01/18 14:47:25;;;;;;;4.00;2.40;;;10.60;70.70;;;;;;6158138;23;20376;-77